RYR789 LPFR-EDDN
Flight info
| Callsign | RYR789 |
|---|---|
| Flight time | 2h 52m |
| Altitude | 34000 |
| Route | ELVAR DCT BARDI DCT ZMR/N0470F360 DCT NUBLO DCT RONSI DCT DELOG DCT PEXOD DCT DIDIG DCT TIRAV DCT ERJAZ DCT PIWIZ DCT TSU UN858 OQQAL DCT RANUX/N0461F370 DCT VALEK DCT LIPNI DCT LIMGO DCT BOMBI Z723 ETOLU/N0460F350 Z723 RITUP/N0421F230 Z723 KOMIB T193 ERTES T194 DODAS DODAS1V |
| Aircraft | B738/M-SDE2E3FGHIRWXY/LB1 |
Departure
| Time | 2026-05-05 15:55 |
|---|---|
| Airport | Faro - Gago Coutinho International Airport (LPFR) |
Arrival
| Time | 2026-05-05 18:47 |
|---|---|
| Airport | Nuremberg Airport (EDDN) |
| Time | Latitude | Longitude | Altitude | Speed | Heading |
|---|---|---|---|---|---|
| 2026-05-05 15:03 | 37.01899 | -7.96695 | 19 ft | 0 kts | 10° |
| 2026-05-05 15:34 | 37.01899 | -7.96696 | 19 ft | 0 kts | 10° |
| 2026-05-05 15:34 | 37.01899 | -7.96695 | 19 ft | 0 kts | 10° |
| 2026-05-05 15:36 | 37.01899 | -7.96696 | 19 ft | 1 kts | 10° |
| 2026-05-05 15:36 | 37.01885 | -7.96698 | 20 ft | 3 kts | 8° |
| 2026-05-05 15:36 | 37.01865 | -7.96702 | 22 ft | 3 kts | 8° |
| 2026-05-05 15:37 | 37.01845 | -7.96706 | 20 ft | 3 kts | 12° |
| 2026-05-05 15:37 | 37.01826 | -7.96713 | 23 ft | 3 kts | 31° |
| 2026-05-05 15:37 | 37.01816 | -7.96724 | 21 ft | 2 kts | 85° |
| 2026-05-05 15:37 | 37.01815 | -7.96729 | 20 ft | 2 kts | 99° |
| 2026-05-05 15:47 | 37.01812 | -7.96705 | 19 ft | 7 kts | 100° |
| 2026-05-05 15:47 | 37.01796 | -7.96596 | 19 ft | 15 kts | 100° |
| 2026-05-05 15:48 | 37.01756 | -7.96530 | 19 ft | 15 kts | 162° |
| 2026-05-05 15:48 | 37.01628 | -7.96534 | 20 ft | 11 kts | 142° |
| 2026-05-05 15:48 | 37.01609 | -7.96453 | 20 ft | 12 kts | 100° |
| 2026-05-05 15:48 | 37.01597 | -7.96364 | 20 ft | 19 kts | 99° |
| 2026-05-05 15:49 | 37.01565 | -7.96175 | 19 ft | 23 kts | 101° |
| 2026-05-05 15:49 | 37.01540 | -7.95984 | 21 ft | 20 kts | 100° |
| 2026-05-05 15:49 | 37.01495 | -7.95845 | 19 ft | 13 kts | 154° |
| 2026-05-05 15:49 | 37.01450 | -7.95841 | 20 ft | 0 kts | 190° |
| 2026-05-05 15:53 | 37.01439 | -7.95844 | 20 ft | 9 kts | 191° |
| 2026-05-05 15:53 | 37.01397 | -7.95853 | 21 ft | 0 kts | 189° |
| 2026-05-05 15:54 | 37.01348 | -7.95908 | 23 ft | 14 kts | 267° |
| 2026-05-05 15:54 | 37.01364 | -7.96026 | 23 ft | 28 kts | 279° |
| 2026-05-05 15:54 | 37.01444 | -7.96593 | 26 ft | 102 kts | 280° |
| 2026-05-05 15:54 | 37.01609 | -7.97738 | 46 ft | 162 kts | 278° |
| 2026-05-05 15:55 | 37.01817 | -7.99176 | 760 ft | 172 kts | 282° |
| 2026-05-05 15:55 | 37.02051 | -8.00571 | 1948 ft | 161 kts | 285° |
| 2026-05-05 15:55 | 37.02255 | -8.01986 | 2786 ft | 170 kts | 287° |
| 2026-05-05 15:55 | 37.02455 | -8.03461 | 3622 ft | 180 kts | 284° |
| 2026-05-05 15:56 | 37.02696 | -8.05142 | 3972 ft | 209 kts | 284° |
| 2026-05-05 15:56 | 37.02955 | -8.06958 | 4637 ft | 216 kts | 284° |
| 2026-05-05 15:56 | 37.03231 | -8.08862 | 5251 ft | 227 kts | 283° |
| 2026-05-05 15:56 | 37.03659 | -8.10765 | 6105 ft | 223 kts | 304° |
| 2026-05-05 15:57 | 37.04766 | -8.12077 | 6853 ft | 225 kts | 336° |
| 2026-05-05 15:57 | 37.06362 | -8.12456 | 7130 ft | 253 kts | 2° |
| 2026-05-05 15:57 | 37.08171 | -8.12177 | 7716 ft | 266 kts | 7° |
| 2026-05-05 15:57 | 37.10018 | -8.11800 | 8556 ft | 271 kts | 7° |
| 2026-05-05 15:58 | 37.11914 | -8.11402 | 9292 ft | 279 kts | 7° |
| 2026-05-05 15:58 | 37.13827 | -8.11003 | 10198 ft | 280 kts | 7° |
| 2026-05-05 15:58 | 37.15769 | -8.10606 | 10652 ft | 295 kts | 7° |
| 2026-05-05 15:58 | 37.17886 | -8.10179 | 10847 ft | 320 kts | 7° |
| 2026-05-05 15:59 | 37.20175 | -8.09727 | 10994 ft | 344 kts | 7° |
| 2026-05-05 15:59 | 37.22614 | -8.09250 | 11182 ft | 365 kts | 7° |
| 2026-05-05 15:59 | 37.25181 | -8.08746 | 11575 ft | 378 kts | 6° |
| 2026-05-05 15:59 | 37.27768 | -8.08234 | 12188 ft | 383 kts | 6° |
| 2026-05-05 16:00 | 37.30410 | -8.07709 | 12912 ft | 385 kts | 6° |
| 2026-05-05 16:00 | 37.33074 | -8.07180 | 13505 ft | 390 kts | 6° |
| 2026-05-05 16:00 | 37.35780 | -8.06644 | 14112 ft | 393 kts | 6° |
| 2026-05-05 16:00 | 37.38464 | -8.06111 | 14645 ft | 396 kts | 6° |
| 2026-05-05 16:01 | 37.41210 | -8.05566 | 15142 ft | 401 kts | 6° |
| 2026-05-05 16:01 | 37.43987 | -8.05015 | 15654 ft | 404 kts | 6° |
| 2026-05-05 16:01 | 37.46786 | -8.04458 | 16151 ft | 407 kts | 6° |
| 2026-05-05 16:01 | 37.49569 | -8.03904 | 16617 ft | 411 kts | 6° |
| 2026-05-05 16:02 | 37.52406 | -8.03338 | 17076 ft | 414 kts | 6° |
| 2026-05-05 16:02 | 37.55277 | -8.02766 | 17541 ft | 417 kts | 6° |
| 2026-05-05 16:02 | 37.58160 | -8.02194 | 17984 ft | 420 kts | 6° |
| 2026-05-05 16:02 | 37.61067 | -8.01665 | 18407 ft | 422 kts | 4° |
| 2026-05-05 16:03 | 37.63975 | -8.01326 | 18768 ft | 424 kts | 1° |
| 2026-05-05 16:03 | 37.66933 | -8.01077 | 19139 ft | 426 kts | 0° |
| 2026-05-05 16:03 | 37.69899 | -8.00854 | 19497 ft | 429 kts | 0° |
| 2026-05-05 16:03 | 37.72894 | -8.00624 | 19838 ft | 431 kts | 0° |
| 2026-05-05 16:04 | 37.75906 | -8.00379 | 20169 ft | 433 kts | 0° |
| 2026-05-05 16:04 | 37.78925 | -8.00117 | 20486 ft | 436 kts | 1° |
| 2026-05-05 16:04 | 37.81920 | -7.99847 | 20809 ft | 438 kts | 1° |
| 2026-05-05 16:04 | 37.84968 | -7.99567 | 21123 ft | 439 kts | 1° |
| 2026-05-05 16:05 | 37.88026 | -7.99283 | 21425 ft | 442 kts | 1° |
| 2026-05-05 16:05 | 37.91106 | -7.98995 | 21720 ft | 444 kts | 1° |
| 2026-05-05 16:05 | 37.94189 | -7.98706 | 22021 ft | 445 kts | 0° |
| 2026-05-05 16:05 | 37.97290 | -7.98416 | 22317 ft | 447 kts | 0° |
| 2026-05-05 16:06 | 38.00402 | -7.98124 | 22596 ft | 449 kts | 0° |
| 2026-05-05 16:06 | 38.03518 | -7.97832 | 22866 ft | 450 kts | 0° |
| 2026-05-05 16:06 | 38.06650 | -7.97538 | 23137 ft | 452 kts | 0° |
| 2026-05-05 16:06 | 38.09790 | -7.97243 | 23392 ft | 453 kts | 0° |
| 2026-05-05 16:07 | 38.12944 | -7.96947 | 23640 ft | 454 kts | 0° |
| 2026-05-05 16:07 | 38.16101 | -7.96651 | 23844 ft | 456 kts | 0° |
| 2026-05-05 16:07 | 38.19266 | -7.96353 | 24023 ft | 457 kts | 0° |
| 2026-05-05 16:07 | 38.22448 | -7.96054 | 24195 ft | 459 kts | 0° |
| 2026-05-05 16:08 | 38.25639 | -7.95754 | 24371 ft | 460 kts | 360° |
| 2026-05-05 16:08 | 38.28804 | -7.95455 | 24525 ft | 462 kts | 360° |
| 2026-05-05 16:08 | 38.32019 | -7.95151 | 24706 ft | 463 kts | 359° |
| 2026-05-05 16:08 | 38.35243 | -7.94846 | 24884 ft | 464 kts | 359° |
| 2026-05-05 16:09 | 38.38477 | -7.94540 | 25052 ft | 465 kts | 359° |
| 2026-05-05 16:09 | 38.41712 | -7.94233 | 25211 ft | 466 kts | 359° |
| 2026-05-05 16:09 | 38.44954 | -7.93925 | 25367 ft | 467 kts | 359° |
| 2026-05-05 16:09 | 38.48207 | -7.93615 | 25530 ft | 468 kts | 359° |
| 2026-05-05 16:10 | 38.51420 | -7.93309 | 25684 ft | 469 kts | 359° |
| 2026-05-05 16:10 | 38.54681 | -7.92997 | 25836 ft | 470 kts | 359° |
| 2026-05-05 16:10 | 38.57949 | -7.92684 | 25994 ft | 470 kts | 359° |
| 2026-05-05 16:10 | 38.61223 | -7.92372 | 26173 ft | 470 kts | 359° |
| 2026-05-05 16:11 | 38.64484 | -7.91854 | 26289 ft | 479 kts | 9° |
| 2026-05-05 16:11 | 38.72794 | -7.84397 | 26731 ft | 501 kts | 40° |
| 2026-05-05 16:12 | 38.75258 | -7.81236 | 26842 ft | 503 kts | 41° |
| 2026-05-05 16:12 | 38.80222 | -7.74864 | 27104 ft | 504 kts | 40° |
| 2026-05-05 16:13 | 38.87693 | -7.65457 | 27710 ft | 501 kts | 39° |
| 2026-05-05 16:13 | 38.90169 | -7.62355 | 28207 ft | 493 kts | 39° |
| 2026-05-05 16:13 | 38.92607 | -7.59298 | 28664 ft | 487 kts | 39° |
| 2026-05-05 16:14 | 38.97367 | -7.53319 | 29636 ft | 474 kts | 39° |
| 2026-05-05 16:14 | 39.02023 | -7.47457 | 30539 ft | 462 kts | 39° |
| 2026-05-05 16:15 | 39.06564 | -7.41728 | 31402 ft | 449 kts | 38° |
| 2026-05-05 16:15 | 39.10934 | -7.36204 | 32266 ft | 435 kts | 38° |
| 2026-05-05 16:16 | 39.15176 | -7.30830 | 33159 ft | 419 kts | 38° |
| 2026-05-05 16:16 | 39.19260 | -7.25652 | 34010 ft | 404 kts | 37° |
| 2026-05-05 16:17 | 39.23552 | -7.21103 | 34012 ft | 396 kts | 20° |
| 2026-05-05 16:17 | 39.25984 | -7.19443 | 34010 ft | 396 kts | 18° |
| 2026-05-05 16:18 | 39.33485 | -7.14608 | 34002 ft | 406 kts | 18° |
| 2026-05-05 16:19 | 39.41147 | -7.09591 | 34005 ft | 417 kts | 19° |
| 2026-05-05 16:19 | 39.48978 | -7.04393 | 33996 ft | 428 kts | 19° |
| 2026-05-05 16:20 | 39.59761 | -6.97201 | 33987 ft | 442 kts | 20° |
| 2026-05-05 16:22 | 39.73657 | -6.87899 | 33983 ft | 457 kts | 20° |
| 2026-05-05 16:23 | 39.85149 | -6.80180 | 33986 ft | 476 kts | 20° |
| 2026-05-05 16:23 | 39.94147 | -6.74108 | 33974 ft | 488 kts | 21° |
| 2026-05-05 16:24 | 40.00148 | -6.70043 | 33973 ft | 489 kts | 21° |
| 2026-05-05 16:25 | 40.09097 | -6.63965 | 33971 ft | 477 kts | 20° |
| 2026-05-05 16:25 | 40.17916 | -6.57973 | 33972 ft | 477 kts | 20° |
| 2026-05-05 16:26 | 40.29708 | -6.49930 | 33980 ft | 477 kts | 20° |
| 2026-05-05 16:27 | 40.35574 | -6.45915 | 33983 ft | 478 kts | 20° |
| 2026-05-05 16:27 | 40.41470 | -6.41871 | 33975 ft | 478 kts | 20° |
| 2026-05-05 16:28 | 40.47377 | -6.37810 | 33976 ft | 478 kts | 20° |
| 2026-05-05 16:28 | 40.53232 | -6.33774 | 33985 ft | 478 kts | 20° |
| 2026-05-05 16:29 | 40.59131 | -6.29705 | 33980 ft | 478 kts | 20° |
| 2026-05-05 16:29 | 40.65023 | -6.25649 | 33984 ft | 477 kts | 20° |
| 2026-05-05 16:30 | 40.70920 | -6.21585 | 33989 ft | 477 kts | 20° |
| 2026-05-05 16:30 | 40.76781 | -6.17533 | 33980 ft | 476 kts | 20° |
| 2026-05-05 16:31 | 40.82628 | -6.13477 | 33988 ft | 476 kts | 20° |
| 2026-05-05 16:31 | 40.88496 | -6.09399 | 33988 ft | 476 kts | 20° |
| 2026-05-05 16:32 | 40.94369 | -6.05310 | 33988 ft | 476 kts | 20° |
| 2026-05-05 16:32 | 41.00207 | -6.01236 | 33992 ft | 476 kts | 20° |
| 2026-05-05 16:33 | 41.06091 | -5.97123 | 33985 ft | 477 kts | 20° |
| 2026-05-05 16:33 | 41.11939 | -5.93026 | 33991 ft | 478 kts | 21° |
| 2026-05-05 16:34 | 41.17802 | -5.88910 | 33987 ft | 479 kts | 21° |
| 2026-05-05 16:34 | 41.22746 | -5.85432 | 33991 ft | 479 kts | 21° |
| 2026-05-05 16:35 | 41.28623 | -5.81289 | 33991 ft | 480 kts | 21° |
| 2026-05-05 16:35 | 41.34508 | -5.77133 | 33987 ft | 481 kts | 21° |
| 2026-05-05 16:36 | 41.40423 | -5.72944 | 33978 ft | 482 kts | 21° |
| 2026-05-05 16:36 | 41.46359 | -5.68730 | 33981 ft | 482 kts | 22° |
| 2026-05-05 16:37 | 41.52266 | -5.64533 | 33983 ft | 483 kts | 22° |
| 2026-05-05 16:37 | 41.58354 | -5.60799 | 33980 ft | 479 kts | 17° |
| 2026-05-05 16:38 | 41.64482 | -5.57447 | 33977 ft | 479 kts | 16° |
| 2026-05-05 16:38 | 41.70658 | -5.54053 | 33987 ft | 479 kts | 17° |
| 2026-05-05 16:39 | 41.76816 | -5.50596 | 33982 ft | 480 kts | 17° |
| 2026-05-05 16:39 | 41.82969 | -5.47104 | 33989 ft | 479 kts | 18° |
| 2026-05-05 16:40 | 41.89074 | -5.43629 | 33985 ft | 480 kts | 18° |
| 2026-05-05 16:40 | 41.95226 | -5.40123 | 33992 ft | 480 kts | 18° |
| 2026-05-05 16:41 | 42.01376 | -5.36613 | 33990 ft | 480 kts | 18° |
| 2026-05-05 16:41 | 42.07498 | -5.33111 | 33992 ft | 480 kts | 18° |
| 2026-05-05 16:42 | 42.13649 | -5.29586 | 33993 ft | 480 kts | 18° |
| 2026-05-05 16:42 | 42.19812 | -5.26046 | 33999 ft | 481 kts | 18° |
| 2026-05-05 16:43 | 42.25980 | -5.22495 | 33993 ft | 481 kts | 19° |
| 2026-05-05 16:43 | 42.32114 | -5.18956 | 33998 ft | 481 kts | 19° |
| 2026-05-05 16:44 | 42.38277 | -5.15392 | 33992 ft | 482 kts | 19° |
| 2026-05-05 16:44 | 42.44419 | -5.11833 | 33991 ft | 482 kts | 19° |
| 2026-05-05 16:45 | 42.50594 | -5.08246 | 33987 ft | 482 kts | 19° |
| 2026-05-05 16:45 | 42.56742 | -5.04666 | 33987 ft | 482 kts | 19° |
| 2026-05-05 16:46 | 42.62919 | -5.01059 | 33994 ft | 483 kts | 19° |
| 2026-05-05 16:46 | 42.69102 | -4.97448 | 33997 ft | 483 kts | 19° |
| 2026-05-05 16:47 | 42.75254 | -4.93856 | 33987 ft | 484 kts | 19° |
| 2026-05-05 16:47 | 42.81460 | -4.90219 | 33999 ft | 484 kts | 20° |
| 2026-05-05 16:48 | 42.87613 | -4.86602 | 34002 ft | 484 kts | 20° |
| 2026-05-05 16:48 | 42.93815 | -4.82947 | 33993 ft | 485 kts | 20° |
| 2026-05-05 16:49 | 42.99976 | -4.79308 | 34012 ft | 486 kts | 20° |
| 2026-05-05 16:49 | 43.06164 | -4.75644 | 34004 ft | 486 kts | 20° |
| 2026-05-05 16:50 | 43.12382 | -4.71954 | 34015 ft | 486 kts | 20° |
| 2026-05-05 16:50 | 43.18547 | -4.68287 | 34023 ft | 485 kts | 21° |
| 2026-05-05 16:51 | 43.24747 | -4.64591 | 34017 ft | 485 kts | 21° |
| 2026-05-05 16:51 | 43.30936 | -4.60893 | 34016 ft | 484 kts | 21° |
| 2026-05-05 16:52 | 43.37098 | -4.57201 | 34017 ft | 482 kts | 21° |
| 2026-05-05 16:52 | 43.43206 | -4.53532 | 34025 ft | 481 kts | 21° |
| 2026-05-05 16:53 | 43.49351 | -4.49838 | 34016 ft | 480 kts | 21° |
| 2026-05-05 16:53 | 43.55485 | -4.46152 | 34019 ft | 480 kts | 21° |
| 2026-05-05 16:54 | 43.61577 | -4.42483 | 34018 ft | 480 kts | 22° |
| 2026-05-05 16:54 | 43.67714 | -4.38774 | 34013 ft | 480 kts | 22° |
| 2026-05-05 16:55 | 43.73807 | -4.35080 | 34007 ft | 481 kts | 22° |
| 2026-05-05 16:55 | 43.79998 | -4.31319 | 34152 ft | 486 kts | 22° |
| 2026-05-05 16:56 | 43.83056 | -4.29457 | 34393 ft | 484 kts | 22° |
| 2026-05-05 16:56 | 43.86145 | -4.27574 | 34636 ft | 483 kts | 22° |
| 2026-05-05 16:56 | 43.89232 | -4.25691 | 34816 ft | 484 kts | 22° |
| 2026-05-05 16:56 | 43.92313 | -4.23809 | 34975 ft | 484 kts | 22° |
| 2026-05-05 16:57 | 43.95410 | -4.21915 | 35166 ft | 484 kts | 22° |
| 2026-05-05 16:57 | 43.98491 | -4.20029 | 35362 ft | 484 kts | 22° |
| 2026-05-05 16:57 | 44.01571 | -4.18142 | 35532 ft | 484 kts | 22° |
| 2026-05-05 16:57 | 44.04655 | -4.16248 | 35715 ft | 484 kts | 22° |
| 2026-05-05 16:58 | 44.07710 | -4.14371 | 35909 ft | 484 kts | 22° |
| 2026-05-05 16:58 | 44.10793 | -4.12475 | 36080 ft | 484 kts | 22° |
| 2026-05-05 16:58 | 44.13878 | -4.10575 | 36254 ft | 484 kts | 22° |
| 2026-05-05 16:58 | 44.16966 | -4.08671 | 36438 ft | 483 kts | 22° |
| 2026-05-05 16:59 | 44.20045 | -4.06769 | 36612 ft | 483 kts | 22° |
| 2026-05-05 16:59 | 44.23080 | -4.04893 | 36775 ft | 483 kts | 22° |
| 2026-05-05 16:59 | 44.26161 | -4.02985 | 36930 ft | 483 kts | 22° |
| 2026-05-05 16:59 | 44.29247 | -4.01074 | 36979 ft | 485 kts | 22° |
| 2026-05-05 17:00 | 44.35221 | -3.96793 | 36983 ft | 485 kts | 33° |
| 2026-05-05 17:00 | 44.40778 | -3.91433 | 36976 ft | 483 kts | 34° |
| 2026-05-05 17:01 | 44.46238 | -3.86032 | 36968 ft | 482 kts | 34° |
| 2026-05-05 17:01 | 44.51729 | -3.80657 | 36977 ft | 481 kts | 34° |
| 2026-05-05 17:02 | 44.57199 | -3.75344 | 36976 ft | 480 kts | 34° |
| 2026-05-05 17:02 | 44.62698 | -3.70002 | 36978 ft | 480 kts | 34° |
| 2026-05-05 17:03 | 44.68168 | -3.64676 | 36973 ft | 481 kts | 34° |
| 2026-05-05 17:03 | 44.73668 | -3.59303 | 36958 ft | 482 kts | 34° |
| 2026-05-05 17:04 | 44.79156 | -3.53929 | 36963 ft | 483 kts | 34° |
| 2026-05-05 17:04 | 44.84688 | -3.48500 | 36969 ft | 485 kts | 34° |
| 2026-05-05 17:05 | 44.90204 | -3.43073 | 36969 ft | 486 kts | 34° |
| 2026-05-05 17:05 | 44.95760 | -3.37593 | 36949 ft | 487 kts | 35° |
| 2026-05-05 17:06 | 45.01323 | -3.32093 | 36954 ft | 487 kts | 35° |
| 2026-05-05 17:06 | 45.06849 | -3.26615 | 36952 ft | 486 kts | 35° |
| 2026-05-05 17:07 | 45.12385 | -3.21114 | 36949 ft | 485 kts | 35° |
| 2026-05-05 17:07 | 45.17871 | -3.15650 | 36951 ft | 484 kts | 35° |
| 2026-05-05 17:08 | 45.23371 | -3.10155 | 36949 ft | 482 kts | 35° |
| 2026-05-05 17:08 | 45.28848 | -3.04670 | 36944 ft | 481 kts | 35° |
| 2026-05-05 17:09 | 45.34272 | -2.99209 | 36941 ft | 479 kts | 36° |
| 2026-05-05 17:09 | 45.39659 | -2.93666 | 36937 ft | 478 kts | 36° |
| 2026-05-05 17:10 | 45.45046 | -2.88085 | 36937 ft | 478 kts | 36° |
| 2026-05-05 17:10 | 45.50416 | -2.82517 | 36934 ft | 477 kts | 36° |
| 2026-05-05 17:11 | 45.55787 | -2.76943 | 36933 ft | 477 kts | 36° |
| 2026-05-05 17:11 | 45.61131 | -2.71384 | 36930 ft | 477 kts | 36° |
| 2026-05-05 17:12 | 45.66501 | -2.65785 | 36933 ft | 478 kts | 36° |
| 2026-05-05 17:12 | 45.71882 | -2.60159 | 36922 ft | 478 kts | 36° |
| 2026-05-05 17:13 | 45.77236 | -2.54549 | 36927 ft | 479 kts | 37° |
| 2026-05-05 17:13 | 45.82628 | -2.48884 | 36929 ft | 480 kts | 37° |
| 2026-05-05 17:14 | 45.87980 | -2.43246 | 36915 ft | 481 kts | 37° |
| 2026-05-05 17:14 | 45.93381 | -2.37543 | 36914 ft | 481 kts | 37° |
| 2026-05-05 17:15 | 45.98756 | -2.31849 | 36919 ft | 482 kts | 37° |
| 2026-05-05 17:15 | 46.04146 | -2.26123 | 36904 ft | 481 kts | 38° |
| 2026-05-05 17:16 | 46.08975 | -2.19506 | 36919 ft | 478 kts | 48° |
| 2026-05-05 17:16 | 46.13424 | -2.12454 | 36912 ft | 477 kts | 49° |
| 2026-05-05 17:17 | 46.17884 | -2.05381 | 36900 ft | 477 kts | 48° |
| 2026-05-05 17:17 | 46.22384 | -1.98329 | 36901 ft | 477 kts | 48° |
| 2026-05-05 17:18 | 46.26872 | -1.91318 | 36907 ft | 477 kts | 48° |
| 2026-05-05 17:18 | 46.31380 | -1.84259 | 36899 ft | 477 kts | 48° |
| 2026-05-05 17:19 | 46.35866 | -1.77210 | 36892 ft | 477 kts | 48° |
| 2026-05-05 17:19 | 46.40367 | -1.70119 | 36894 ft | 478 kts | 48° |
| 2026-05-05 17:20 | 46.44864 | -1.63014 | 36887 ft | 478 kts | 48° |
| 2026-05-05 17:20 | 46.49356 | -1.55897 | 36879 ft | 478 kts | 49° |
| 2026-05-05 17:21 | 46.53823 | -1.48798 | 36899 ft | 479 kts | 49° |
| 2026-05-05 17:22 | 46.60578 | -1.38033 | 36886 ft | 479 kts | 49° |
| 2026-05-05 17:22 | 46.65057 | -1.30844 | 36888 ft | 479 kts | 49° |
| 2026-05-05 17:23 | 46.69503 | -1.23671 | 36878 ft | 479 kts | 49° |
| 2026-05-05 17:23 | 46.73964 | -1.16449 | 36881 ft | 479 kts | 49° |
| 2026-05-05 17:24 | 46.78415 | -1.09226 | 36883 ft | 478 kts | 49° |
| 2026-05-05 17:24 | 46.82831 | -1.02042 | 36877 ft | 478 kts | 49° |
| 2026-05-05 17:25 | 46.87249 | -0.94836 | 36885 ft | 477 kts | 49° |
| 2026-05-05 17:25 | 46.91680 | -0.87589 | 36875 ft | 476 kts | 49° |
| 2026-05-05 17:26 | 46.96094 | -0.80350 | 36879 ft | 476 kts | 49° |
| 2026-05-05 17:26 | 46.98269 | -0.76776 | 36994 ft | 475 kts | 49° |
| 2026-05-05 17:26 | 47.00465 | -0.73161 | 36931 ft | 473 kts | 49° |
| 2026-05-05 17:27 | 47.04818 | -0.65985 | 36866 ft | 466 kts | 49° |
| 2026-05-05 17:27 | 47.09105 | -0.58896 | 36860 ft | 463 kts | 49° |
| 2026-05-05 17:28 | 47.13324 | -0.51900 | 36870 ft | 461 kts | 50° |
| 2026-05-05 17:28 | 47.17574 | -0.44832 | 36870 ft | 461 kts | 50° |
| 2026-05-05 17:29 | 47.21823 | -0.37748 | 36863 ft | 461 kts | 49° |
| 2026-05-05 17:29 | 47.26138 | -0.30814 | 36873 ft | 462 kts | 46° |
| 2026-05-05 17:30 | 47.30762 | -0.24187 | 36871 ft | 464 kts | 44° |
| 2026-05-05 17:30 | 47.35412 | -0.17624 | 36875 ft | 466 kts | 45° |
| 2026-05-05 17:31 | 47.40076 | -0.10941 | 36895 ft | 467 kts | 45° |
| 2026-05-05 17:31 | 47.44702 | -0.04238 | 36881 ft | 468 kts | 45° |
| 2026-05-05 17:32 | 47.49349 | 0.02529 | 36871 ft | 468 kts | 45° |
| 2026-05-05 17:32 | 47.53961 | 0.09260 | 36869 ft | 468 kts | 45° |
| 2026-05-05 17:33 | 47.58595 | 0.16039 | 36868 ft | 467 kts | 45° |
| 2026-05-05 17:33 | 47.63203 | 0.22798 | 36862 ft | 467 kts | 45° |
| 2026-05-05 17:34 | 47.67821 | 0.29589 | 36869 ft | 467 kts | 45° |
| 2026-05-05 17:34 | 47.72430 | 0.36385 | 36890 ft | 466 kts | 46° |
| 2026-05-05 17:35 | 47.76254 | 0.42036 | 36879 ft | 466 kts | 46° |
| 2026-05-05 17:35 | 47.81592 | 0.49948 | 36868 ft | 465 kts | 46° |
| 2026-05-05 17:36 | 47.86166 | 0.56744 | 36870 ft | 464 kts | 46° |
| 2026-05-05 17:36 | 47.89956 | 0.62391 | 36863 ft | 463 kts | 46° |
| 2026-05-05 17:37 | 47.94511 | 0.69195 | 36869 ft | 462 kts | 46° |
| 2026-05-05 17:37 | 47.99058 | 0.76004 | 36860 ft | 463 kts | 46° |
| 2026-05-05 17:38 | 48.03568 | 0.82774 | 36844 ft | 463 kts | 46° |
| 2026-05-05 17:38 | 48.08109 | 0.89612 | 36852 ft | 462 kts | 46° |
| 2026-05-05 17:39 | 48.12639 | 0.96453 | 36836 ft | 462 kts | 46° |
| 2026-05-05 17:39 | 48.17143 | 1.03276 | 36849 ft | 462 kts | 46° |
| 2026-05-05 17:40 | 48.21664 | 1.10153 | 36850 ft | 462 kts | 48° |
| 2026-05-05 17:40 | 48.25818 | 1.17463 | 36839 ft | 462 kts | 52° |
| 2026-05-05 17:41 | 48.29848 | 1.25023 | 36845 ft | 464 kts | 52° |
| 2026-05-05 17:41 | 48.33878 | 1.32550 | 36836 ft | 466 kts | 52° |
| 2026-05-05 17:42 | 48.37962 | 1.40110 | 36832 ft | 466 kts | 52° |
| 2026-05-05 17:42 | 48.42062 | 1.47688 | 36812 ft | 465 kts | 52° |
| 2026-05-05 17:43 | 48.46108 | 1.55191 | 36826 ft | 463 kts | 52° |
| 2026-05-05 17:43 | 48.50162 | 1.62732 | 36816 ft | 461 kts | 52° |
| 2026-05-05 17:44 | 48.54193 | 1.70252 | 36832 ft | 460 kts | 52° |
| 2026-05-05 17:44 | 48.58211 | 1.77773 | 36822 ft | 460 kts | 52° |
| 2026-05-05 17:45 | 48.62198 | 1.85256 | 36823 ft | 459 kts | 52° |
| 2026-05-05 17:45 | 48.66205 | 1.92798 | 36828 ft | 459 kts | 52° |
| 2026-05-05 17:46 | 48.70203 | 2.00347 | 36836 ft | 459 kts | 52° |
| 2026-05-05 17:46 | 48.73023 | 2.05682 | 36836 ft | 459 kts | 53° |
| 2026-05-05 17:47 | 48.76061 | 2.13691 | 36828 ft | 456 kts | 71° |
| 2026-05-05 17:47 | 48.77807 | 2.22895 | 36830 ft | 455 kts | 77° |
| 2026-05-05 17:48 | 48.79401 | 2.32212 | 36834 ft | 457 kts | 77° |
| 2026-05-05 17:48 | 48.81038 | 2.41539 | 36819 ft | 457 kts | 76° |
| 2026-05-05 17:49 | 48.82687 | 2.50816 | 36827 ft | 458 kts | 76° |
| 2026-05-05 17:49 | 48.84342 | 2.60173 | 36830 ft | 459 kts | 76° |
| 2026-05-05 17:50 | 48.85991 | 2.69542 | 36833 ft | 459 kts | 76° |
| 2026-05-05 17:50 | 48.87640 | 2.78940 | 36819 ft | 459 kts | 76° |
| 2026-05-05 17:51 | 48.89270 | 2.88263 | 36817 ft | 459 kts | 76° |
| 2026-05-05 17:51 | 48.90897 | 2.97637 | 36816 ft | 458 kts | 77° |
| 2026-05-05 17:52 | 48.92510 | 3.06994 | 36807 ft | 457 kts | 77° |
| 2026-05-05 17:52 | 48.94118 | 3.16370 | 36814 ft | 457 kts | 77° |
| 2026-05-05 17:53 | 48.95707 | 3.25685 | 36799 ft | 456 kts | 77° |
| 2026-05-05 17:53 | 48.97294 | 3.35040 | 36806 ft | 456 kts | 77° |
| 2026-05-05 17:54 | 48.98862 | 3.44332 | 36808 ft | 456 kts | 77° |
| 2026-05-05 17:54 | 49.00433 | 3.53694 | 36801 ft | 456 kts | 77° |
| 2026-05-05 17:55 | 49.02000 | 3.63080 | 36794 ft | 456 kts | 77° |
| 2026-05-05 17:55 | 49.03548 | 3.72410 | 36799 ft | 456 kts | 77° |
| 2026-05-05 17:56 | 49.05099 | 3.81801 | 36802 ft | 457 kts | 77° |
| 2026-05-05 17:56 | 49.06647 | 3.91235 | 36804 ft | 458 kts | 77° |
| 2026-05-05 17:57 | 49.08181 | 4.00636 | 36801 ft | 459 kts | 78° |
| 2026-05-05 17:57 | 49.09721 | 4.10126 | 36802 ft | 460 kts | 78° |
| 2026-05-05 17:58 | 49.11245 | 4.19578 | 36803 ft | 461 kts | 78° |
| 2026-05-05 17:58 | 49.12774 | 4.29109 | 36800 ft | 462 kts | 78° |
| 2026-05-05 17:59 | 49.14462 | 4.38587 | 36796 ft | 464 kts | 70° |
| 2026-05-05 17:59 | 49.16926 | 4.47684 | 36788 ft | 466 kts | 68° |
| 2026-05-05 18:00 | 49.19470 | 4.56799 | 36794 ft | 465 kts | 69° |
| 2026-05-05 18:00 | 49.21950 | 4.65869 | 36790 ft | 464 kts | 69° |
| 2026-05-05 18:01 | 49.24416 | 4.75036 | 36798 ft | 464 kts | 69° |
| 2026-05-05 18:01 | 49.26857 | 4.84174 | 36795 ft | 463 kts | 69° |
| 2026-05-05 18:02 | 49.29289 | 4.93314 | 36798 ft | 463 kts | 70° |
| 2026-05-05 18:02 | 49.31706 | 5.02427 | 36809 ft | 463 kts | 70° |
| 2026-05-05 18:03 | 49.33635 | 5.11753 | 36830 ft | 459 kts | 79° |
| 2026-05-05 18:03 | 49.34909 | 5.21360 | 36810 ft | 459 kts | 81° |
| 2026-05-05 18:04 | 49.36131 | 5.30944 | 36803 ft | 460 kts | 81° |
| 2026-05-05 18:04 | 49.37400 | 5.40574 | 36813 ft | 460 kts | 80° |
| 2026-05-05 18:05 | 49.38691 | 5.50198 | 36815 ft | 460 kts | 80° |
| 2026-05-05 18:05 | 49.39979 | 5.59791 | 36813 ft | 461 kts | 80° |
| 2026-05-05 18:06 | 49.41266 | 5.69450 | 36806 ft | 461 kts | 80° |
| 2026-05-05 18:06 | 49.42546 | 5.79124 | 36818 ft | 462 kts | 81° |
| 2026-05-05 18:07 | 49.43817 | 5.88807 | 36816 ft | 462 kts | 81° |
| 2026-05-05 18:07 | 49.45074 | 5.98449 | 36808 ft | 462 kts | 81° |
| 2026-05-05 18:08 | 49.46330 | 6.08154 | 36808 ft | 462 kts | 81° |
| 2026-05-05 18:08 | 49.47580 | 6.17872 | 36805 ft | 463 kts | 81° |
| 2026-05-05 18:09 | 49.48821 | 6.27602 | 36806 ft | 463 kts | 81° |
| 2026-05-05 18:09 | 49.50047 | 6.37272 | 36807 ft | 463 kts | 81° |
| 2026-05-05 18:10 | 49.51273 | 6.47017 | 36813 ft | 464 kts | 81° |
| 2026-05-05 18:10 | 49.52493 | 6.56785 | 36813 ft | 464 kts | 81° |
| 2026-05-05 18:11 | 49.53696 | 6.66481 | 36804 ft | 465 kts | 81° |
| 2026-05-05 18:11 | 49.54903 | 6.76276 | 36802 ft | 464 kts | 81° |
| 2026-05-05 18:12 | 49.56097 | 6.86046 | 36795 ft | 463 kts | 81° |
| 2026-05-05 18:12 | 49.57283 | 6.95815 | 36800 ft | 462 kts | 82° |
| 2026-05-05 18:13 | 49.58449 | 7.05498 | 36812 ft | 462 kts | 82° |
| 2026-05-05 18:13 | 49.59615 | 7.15251 | 36818 ft | 461 kts | 82° |
| 2026-05-05 18:14 | 49.60761 | 7.24908 | 36811 ft | 461 kts | 82° |
| 2026-05-05 18:14 | 49.61906 | 7.34630 | 36808 ft | 461 kts | 82° |
| 2026-05-05 18:15 | 49.63044 | 7.44374 | 36811 ft | 461 kts | 82° |
| 2026-05-05 18:15 | 49.64167 | 7.54054 | 36812 ft | 462 kts | 82° |
| 2026-05-05 18:16 | 49.65292 | 7.63828 | 36807 ft | 462 kts | 82° |
| 2026-05-05 18:16 | 49.66411 | 7.73629 | 36813 ft | 463 kts | 82° |
| 2026-05-05 18:17 | 49.67516 | 7.83382 | 36813 ft | 464 kts | 83° |
| 2026-05-05 18:17 | 49.68620 | 7.93208 | 36813 ft | 464 kts | 83° |
| 2026-05-05 18:18 | 49.69718 | 8.03048 | 36817 ft | 464 kts | 83° |
| 2026-05-05 18:18 | 49.70256 | 8.07905 | 36631 ft | 467 kts | 83° |
| 2026-05-05 18:18 | 49.70805 | 8.12877 | 35994 ft | 467 kts | 83° |
| 2026-05-05 18:18 | 49.71348 | 8.17802 | 35459 ft | 461 kts | 83° |
| 2026-05-05 18:19 | 49.71881 | 8.22655 | 34920 ft | 456 kts | 83° |
| 2026-05-05 18:19 | 49.72407 | 8.27468 | 34395 ft | 452 kts | 83° |
| 2026-05-05 18:19 | 49.72927 | 8.32250 | 33884 ft | 449 kts | 84° |
| 2026-05-05 18:19 | 49.73441 | 8.37011 | 33270 ft | 446 kts | 84° |
| 2026-05-05 18:20 | 49.73942 | 8.41670 | 32687 ft | 443 kts | 83° |
| 2026-05-05 18:20 | 49.74443 | 8.46352 | 32105 ft | 440 kts | 83° |
| 2026-05-05 18:20 | 49.74941 | 8.51012 | 31528 ft | 436 kts | 83° |
| 2026-05-05 18:20 | 49.75435 | 8.55661 | 30978 ft | 443 kts | 83° |
| 2026-05-05 18:21 | 49.75918 | 8.60236 | 30460 ft | 451 kts | 83° |
| 2026-05-05 18:21 | 49.76426 | 8.65064 | 29932 ft | 456 kts | 83° |
| 2026-05-05 18:21 | 49.76937 | 8.69916 | 29305 ft | 457 kts | 83° |
| 2026-05-05 18:21 | 49.77448 | 8.74786 | 28913 ft | 458 kts | 83° |
| 2026-05-05 18:22 | 49.77957 | 8.79658 | 28847 ft | 461 kts | 83° |
| 2026-05-05 18:22 | 49.78470 | 8.84589 | 28570 ft | 464 kts | 83° |
| 2026-05-05 18:22 | 49.78976 | 8.89477 | 27961 ft | 465 kts | 83° |
| 2026-05-05 18:22 | 49.79485 | 8.94405 | 27409 ft | 463 kts | 83° |
| 2026-05-05 18:23 | 49.79992 | 8.99340 | 26862 ft | 465 kts | 83° |
| 2026-05-05 18:23 | 49.80500 | 9.04317 | 26325 ft | 468 kts | 83° |
| 2026-05-05 18:23 | 49.81007 | 9.09312 | 25789 ft | 470 kts | 83° |
| 2026-05-05 18:23 | 49.81514 | 9.14319 | 25280 ft | 471 kts | 83° |
| 2026-05-05 18:24 | 49.82018 | 9.19312 | 24935 ft | 467 kts | 83° |
| 2026-05-05 18:24 | 49.82516 | 9.24282 | 24864 ft | 467 kts | 83° |
| 2026-05-05 18:24 | 49.83008 | 9.29205 | 24822 ft | 466 kts | 83° |
| 2026-05-05 18:24 | 49.83501 | 9.34161 | 24825 ft | 465 kts | 83° |
| 2026-05-05 18:25 | 49.83992 | 9.39123 | 24822 ft | 466 kts | 83° |
| 2026-05-05 18:25 | 49.84159 | 9.40812 | 24819 ft | 466 kts | 83° |
| 2026-05-05 18:25 | 49.84964 | 9.49016 | 24818 ft | 467 kts | 83° |
| 2026-05-05 18:25 | 49.85449 | 9.53993 | 24786 ft | 467 kts | 83° |
| 2026-05-05 18:26 | 49.85935 | 9.58995 | 24174 ft | 468 kts | 83° |
| 2026-05-05 18:26 | 49.86417 | 9.63972 | 23618 ft | 462 kts | 83° |
| 2026-05-05 18:26 | 49.86889 | 9.68866 | 23003 ft | 456 kts | 83° |
| 2026-05-05 18:26 | 49.87351 | 9.73689 | 22355 ft | 453 kts | 83° |
| 2026-05-05 18:27 | 49.87814 | 9.78545 | 21722 ft | 451 kts | 83° |
| 2026-05-05 18:27 | 49.88270 | 9.83347 | 21123 ft | 448 kts | 83° |
| 2026-05-05 18:27 | 49.88715 | 9.88052 | 20626 ft | 444 kts | 83° |
| 2026-05-05 18:27 | 49.89160 | 9.92781 | 20124 ft | 440 kts | 83° |
| 2026-05-05 18:28 | 49.90034 | 10.02147 | 19143 ft | 436 kts | 83° |
| 2026-05-05 18:28 | 49.90460 | 10.06742 | 18671 ft | 434 kts | 83° |
| 2026-05-05 18:28 | 49.90887 | 10.11363 | 18204 ft | 432 kts | 83° |
| 2026-05-05 18:29 | 49.91305 | 10.15917 | 17694 ft | 431 kts | 83° |
| 2026-05-05 18:29 | 49.91725 | 10.20507 | 17180 ft | 428 kts | 83° |
| 2026-05-05 18:29 | 49.92142 | 10.25075 | 16649 ft | 426 kts | 83° |
| 2026-05-05 18:29 | 49.92554 | 10.29619 | 16136 ft | 424 kts | 84° |
| 2026-05-05 18:30 | 49.92825 | 10.32616 | 15797 ft | 422 kts | 84° |
| 2026-05-05 18:30 | 49.93190 | 10.37127 | 15287 ft | 418 kts | 88° |
| 2026-05-05 18:30 | 49.93042 | 10.41591 | 14790 ft | 412 kts | 102° |
| 2026-05-05 18:30 | 49.92267 | 10.45836 | 14315 ft | 406 kts | 113° |
| 2026-05-05 18:31 | 49.91036 | 10.49751 | 13939 ft | 400 kts | 120° |
| 2026-05-05 18:31 | 49.89727 | 10.53555 | 13811 ft | 400 kts | 120° |
| 2026-05-05 18:31 | 49.88426 | 10.57393 | 13279 ft | 400 kts | 120° |
| 2026-05-05 18:31 | 49.87164 | 10.61148 | 12751 ft | 395 kts | 120° |
| 2026-05-05 18:32 | 49.85902 | 10.64903 | 12234 ft | 390 kts | 120° |
| 2026-05-05 18:32 | 49.84653 | 10.68619 | 11723 ft | 388 kts | 120° |
| 2026-05-05 18:32 | 49.83411 | 10.72327 | 11228 ft | 386 kts | 120° |
| 2026-05-05 18:32 | 49.82175 | 10.76017 | 10722 ft | 385 kts | 120° |
| 2026-05-05 18:33 | 49.80940 | 10.79699 | 10240 ft | 383 kts | 120° |
| 2026-05-05 18:33 | 49.79736 | 10.83284 | 9913 ft | 373 kts | 120° |
| 2026-05-05 18:33 | 49.78563 | 10.86776 | 9831 ft | 356 kts | 121° |
| 2026-05-05 18:33 | 49.77445 | 10.90100 | 9805 ft | 339 kts | 121° |
| 2026-05-05 18:34 | 49.76380 | 10.93266 | 9798 ft | 323 kts | 121° |
| 2026-05-05 18:34 | 49.75362 | 10.96292 | 9799 ft | 309 kts | 122° |
| 2026-05-05 18:34 | 49.74399 | 10.99138 | 9738 ft | 297 kts | 122° |
| 2026-05-05 18:34 | 49.73429 | 11.01994 | 9294 ft | 293 kts | 122° |
| 2026-05-05 18:35 | 49.72504 | 11.04716 | 8899 ft | 286 kts | 122° |
| 2026-05-05 18:35 | 49.71587 | 11.07414 | 8516 ft | 280 kts | 122° |
| 2026-05-05 18:35 | 49.70685 | 11.10072 | 8129 ft | 276 kts | 122° |
| 2026-05-05 18:35 | 49.69795 | 11.12684 | 7755 ft | 274 kts | 122° |
| 2026-05-05 18:36 | 49.68918 | 11.15252 | 7387 ft | 273 kts | 122° |
| 2026-05-05 18:36 | 49.68028 | 11.17857 | 7053 ft | 273 kts | 122° |
| 2026-05-05 18:36 | 49.67133 | 11.20474 | 7026 ft | 278 kts | 122° |
| 2026-05-05 18:36 | 49.66234 | 11.23105 | 7006 ft | 276 kts | 122° |
| 2026-05-05 18:37 | 49.65338 | 11.25725 | 6865 ft | 277 kts | 122° |
| 2026-05-05 18:37 | 49.64425 | 11.28390 | 6349 ft | 283 kts | 122° |
| 2026-05-05 18:37 | 49.63517 | 11.31040 | 5850 ft | 282 kts | 122° |
| 2026-05-05 18:37 | 49.62661 | 11.33540 | 5389 ft | 281 kts | 121° |
| 2026-05-05 18:38 | 49.61753 | 11.36195 | 5054 ft | 274 kts | 121° |
| 2026-05-05 18:38 | 49.60874 | 11.38764 | 5009 ft | 269 kts | 121° |
| 2026-05-05 18:38 | 49.59996 | 11.41312 | 4994 ft | 270 kts | 121° |
| 2026-05-05 18:38 | 49.59113 | 11.43873 | 4987 ft | 270 kts | 121° |
| 2026-05-05 18:39 | 49.58232 | 11.46429 | 4989 ft | 269 kts | 121° |
| 2026-05-05 18:39 | 49.57366 | 11.48942 | 4978 ft | 268 kts | 122° |
| 2026-05-05 18:39 | 49.56208 | 11.51115 | 4882 ft | 260 kts | 149° |
| 2026-05-05 18:39 | 49.54594 | 11.52123 | 4780 ft | 243 kts | 177° |
| 2026-05-05 18:40 | 49.52968 | 11.52250 | 4731 ft | 231 kts | 183° |
| 2026-05-05 18:40 | 49.51391 | 11.52256 | 4655 ft | 221 kts | 188° |
| 2026-05-05 18:40 | 49.50004 | 11.51528 | 4561 ft | 205 kts | 221° |
| 2026-05-05 18:40 | 49.49204 | 11.49815 | 4390 ft | 195 kts | 250° |
| 2026-05-05 18:41 | 49.48802 | 11.47829 | 4153 ft | 193 kts | 253° |
| 2026-05-05 18:41 | 49.48437 | 11.45883 | 4022 ft | 186 kts | 253° |
| 2026-05-05 18:41 | 49.48094 | 11.44034 | 3994 ft | 172 kts | 254° |
| 2026-05-05 18:41 | 49.47783 | 11.42341 | 3984 ft | 160 kts | 254° |
| 2026-05-05 18:42 | 49.47485 | 11.40736 | 4008 ft | 158 kts | 254° |
| 2026-05-05 18:42 | 49.47184 | 11.39095 | 4010 ft | 161 kts | 254° |
| 2026-05-05 18:42 | 49.47102 | 11.37376 | 4008 ft | 162 kts | 275° |
| 2026-05-05 18:42 | 49.47229 | 11.35640 | 4000 ft | 163 kts | 273° |
| 2026-05-05 18:43 | 49.47358 | 11.33933 | 4003 ft | 162 kts | 275° |
| 2026-05-05 18:43 | 49.47511 | 11.32223 | 3975 ft | 160 kts | 276° |
| 2026-05-05 18:43 | 49.47670 | 11.30516 | 3782 ft | 162 kts | 276° |
| 2026-05-05 18:43 | 49.47833 | 11.28810 | 3567 ft | 159 kts | 276° |
| 2026-05-05 18:44 | 49.47991 | 11.27161 | 3363 ft | 154 kts | 277° |
| 2026-05-05 18:44 | 49.48145 | 11.25563 | 3190 ft | 147 kts | 277° |
| 2026-05-05 18:44 | 49.48292 | 11.24052 | 2980 ft | 140 kts | 277° |
| 2026-05-05 18:44 | 49.48432 | 11.22590 | 2798 ft | 140 kts | 277° |
| 2026-05-05 18:45 | 49.48574 | 11.21112 | 2643 ft | 137 kts | 277° |
| 2026-05-05 18:45 | 49.48716 | 11.19644 | 2435 ft | 140 kts | 277° |
| 2026-05-05 18:45 | 49.48859 | 11.18178 | 2226 ft | 137 kts | 278° |
| 2026-05-05 18:45 | 49.48999 | 11.16737 | 2041 ft | 137 kts | 278° |
| 2026-05-05 18:46 | 49.49140 | 11.15280 | 1856 ft | 138 kts | 278° |
| 2026-05-05 18:46 | 49.49282 | 11.13826 | 1640 ft | 135 kts | 278° |
| 2026-05-05 18:46 | 49.49416 | 11.12462 | 1465 ft | 126 kts | 278° |
| 2026-05-05 18:46 | 49.49549 | 11.11085 | 1311 ft | 132 kts | 278° |
| 2026-05-05 18:47 | 49.49686 | 11.09688 | 1119 ft | 131 kts | 279° |
| 2026-05-05 18:47 | 49.49816 | 11.08364 | 1044 ft | 113 kts | 278° |
| 2026-05-05 18:47 | 49.49911 | 11.07395 | 1043 ft | 70 kts | 279° |
| 2026-05-05 18:47 | 49.49962 | 11.06870 | 1032 ft | 31 kts | 278° |
| 2026-05-05 18:48 | 49.49986 | 11.06569 | 1033 ft | 23 kts | 264° |
| 2026-05-05 18:48 | 49.49921 | 11.06483 | 1031 ft | 8 kts | 174° |
| 2026-05-05 18:48 | 49.49880 | 11.06499 | 1030 ft | 6 kts | 165° |
| 2026-05-05 18:48 | 49.49842 | 11.06524 | 1029 ft | 7 kts | 156° |
| 2026-05-05 18:49 | 49.49803 | 11.06568 | 1025 ft | 7 kts | 119° |
| 2026-05-05 18:49 | 49.49791 | 11.06657 | 1027 ft | 11 kts | 98° |
| 2026-05-05 18:49 | 49.49777 | 11.06792 | 1029 ft | 15 kts | 97° |
| 2026-05-05 18:49 | 49.49760 | 11.06965 | 1032 ft | 17 kts | 98° |
| 2026-05-05 18:50 | 49.49745 | 11.07141 | 1035 ft | 16 kts | 97° |
| 2026-05-05 18:50 | 49.49702 | 11.07229 | 1035 ft | 7 kts | 177° |
| 2026-05-05 18:50 | 49.49653 | 11.07228 | 1034 ft | 8 kts | 166° |
| 2026-05-05 18:50 | 49.49635 | 11.07277 | 1034 ft | 6 kts | 100° |
| 2026-05-05 18:51 | 49.49625 | 11.07375 | 1034 ft | 10 kts | 99° |
| 2026-05-05 18:51 | 49.49617 | 11.07465 | 1035 ft | 4 kts | 98° |
| 2026-05-05 18:51 | 49.49610 | 11.07509 | 1035 ft | 4 kts | 114° |
| 2026-05-05 18:51 | 49.49583 | 11.07527 | 1034 ft | 5 kts | 185° |
| 2026-05-05 18:52 | 49.49559 | 11.07519 | 1032 ft | 5 kts | 187° |
| 2026-05-05 18:52 | 49.49548 | 11.07518 | 1032 ft | 0 kts | 187° |
| 2026-05-05 18:52 | 49.49546 | 11.07518 | 1032 ft | 0 kts | 187° |